sensor_id;sensor_type;location;lat;lon;timestamp;temperature;humidity
8214;DHT22;4148;47.974;7.824;2023-03-21T00:00:45;6.70;99.90
8214;DHT22;4148;47.974;7.824;2023-03-21T00:03:14;6.50;99.90
8214;DHT22;4148;47.974;7.824;2023-03-21T00:05:44;6.40;99.90
8214;DHT22;4148;47.974;7.824;2023-03-21T00:08:15;6.60;99.90
8214;DHT22;4148;47.974;7.824;2023-03-21T00:10:43;6.60;99.90
8214;DHT22;4148;47.974;7.824;2023-03-21T00:13:12;6.60;99.90
8214;DHT22;4148;47.974;7.824;2023-03-21T00:15:40;6.60;99.90
8214;DHT22;4148;47.974;7.824;2023-03-21T00:18:32;6.60;99.90
8214;DHT22;4148;47.974;7.824;2023-03-21T00:21:04;6.50;99.90
8214;DHT22;4148;47.974;7.824;2023-03-21T00:23:52;6.40;99.90
8214;DHT22;4148;47.974;7.824;2023-03-21T00:26:21;6.40;99.90
8214;DHT22;4148;47.974;7.824;2023-03-21T00:28:49;6.40;99.90
8214;DHT22;4148;47.974;7.824;2023-03-21T00:31:17;6.30;99.90
8214;DHT22;4148;47.974;7.824;2023-03-21T00:33:45;6.30;99.90
8214;DHT22;4148;47.974;7.824;2023-03-21T00:36:14;6.30;99.90
8214;DHT22;4148;47.974;7.824;2023-03-21T00:38:42;6.30;99.90
8214;DHT22;4148;47.974;7.824;2023-03-21T00:41:11;6.30;99.90
8214;DHT22;4148;47.974;7.824;2023-03-21T00:44:00;6.20;99.90
8214;DHT22;4148;47.974;7.824;2023-03-21T00:46:29;6.10;99.90
8214;DHT22;4148;47.974;7.824;2023-03-21T00:49:12;6.00;99.90
8214;DHT22;4148;47.974;7.824;2023-03-21T00:51:41;5.80;99.90
8214;DHT22;4148;47.974;7.824;2023-03-21T00:54:10;5.90;99.90
8214;DHT22;4148;47.974;7.824;2023-03-21T00:56:39;5.70;99.90
8214;DHT22;4148;47.974;7.824;2023-03-21T00:59:06;5.70;99.90
8214;DHT22;4148;47.974;7.824;2023-03-21T01:01:34;5.60;99.90
8214;DHT22;4148;47.974;7.824;2023-03-21T01:04:02;5.60;99.90
8214;DHT22;4148;47.974;7.824;2023-03-21T01:06:35;5.80;99.90
8214;DHT22;4148;47.974;7.824;2023-03-21T01:09:08;5.90;99.90
8214;DHT22;4148;47.974;7.824;2023-03-21T01:11:38;6.00;99.90
8214;DHT22;4148;47.974;7.824;2023-03-21T01:14:07;6.00;99.90
8214;DHT22;4148;47.974;7.824;2023-03-21T01:16:49;6.00;99.90
8214;DHT22;4148;47.974;7.824;2023-03-21T01:19:19;6.00;99.90
8214;DHT22;4148;47.974;7.824;2023-03-21T01:21:56;6.00;99.90
8214;DHT22;4148;47.974;7.824;2023-03-21T01:24:26;5.90;99.90
8214;DHT22;4148;47.974;7.824;2023-03-21T01:29:22;5.90;99.90
8214;DHT22;4148;47.974;7.824;2023-03-21T01:31:50;6.00;99.90
8214;DHT22;4148;47.974;7.824;2023-03-21T01:34:18;6.00;99.90
8214;DHT22;4148;47.974;7.824;2023-03-21T01:36:46;6.10;99.90
8214;DHT22;4148;47.974;7.824;2023-03-21T01:39:14;5.90;99.90
8214;DHT22;4148;47.974;7.824;2023-03-21T01:41:43;5.70;99.90
8214;DHT22;4148;47.974;7.824;2023-03-21T01:44:14;5.70;99.90
8214;DHT22;4148;47.974;7.824;2023-03-21T01:46:44;5.90;99.90
8214;DHT22;4148;47.974;7.824;2023-03-21T01:49:35;5.90;99.90
8214;DHT22;4148;47.974;7.824;2023-03-21T01:52:07;5.90;99.90
8214;DHT22;4148;47.974;7.824;2023-03-21T01:54:43;5.80;99.90
8214;DHT22;4148;47.974;7.824;2023-03-21T01:57:17;5.80;99.90
8214;DHT22;4148;47.974;7.824;2023-03-21T01:59:51;5.80;99.90
8214;DHT22;4148;47.974;7.824;2023-03-21T02:02:24;5.70;99.90
8214;DHT22;4148;47.974;7.824;2023-03-21T02:04:54;5.80;99.90
8214;DHT22;4148;47.974;7.824;2023-03-21T02:07:28;5.70;99.90
8214;DHT22;4148;47.974;7.824;2023-03-21T02:09:57;5.80;99.90
8214;DHT22;4148;47.974;7.824;2023-03-21T02:12:27;5.60;99.90
8214;DHT22;4148;47.974;7.824;2023-03-21T02:14:55;5.60;99.90
8214;DHT22;4148;47.974;7.824;2023-03-21T02:17:28;5.60;99.90
8214;DHT22;4148;47.974;7.824;2023-03-21T02:20:38;5.60;99.90
8214;DHT22;4148;47.974;7.824;2023-03-21T02:23:33;5.50;99.90
8214;DHT22;4148;47.974;7.824;2023-03-21T02:26:31;5.60;99.90
8214;DHT22;4148;47.974;7.824;2023-03-21T02:29:29;5.60;99.90
8214;DHT22;4148;47.974;7.824;2023-03-21T02:32:04;5.50;99.90
8214;DHT22;4148;47.974;7.824;2023-03-21T02:35:08;5.60;99.90
8214;DHT22;4148;47.974;7.824;2023-03-21T02:37:44;5.70;99.90
8214;DHT22;4148;47.974;7.824;2023-03-21T02:40:30;5.70;99.90
8214;DHT22;4148;47.974;7.824;2023-03-21T02:43:03;5.60;99.90
8214;DHT22;4148;47.974;7.824;2023-03-21T02:45:46;5.60;99.90
8214;DHT22;4148;47.974;7.824;2023-03-21T02:48:20;5.70;99.90
8214;DHT22;4148;47.974;7.824;2023-03-21T02:51:00;5.80;99.90
8214;DHT22;4148;47.974;7.824;2023-03-21T02:53:32;5.60;99.90
8214;DHT22;4148;47.974;7.824;2023-03-21T02:56:01;5.50;99.90
8214;DHT22;4148;47.974;7.824;2023-03-21T02:58:31;5.50;99.90
8214;DHT22;4148;47.974;7.824;2023-03-21T03:00:59;5.40;99.90
8214;DHT22;4148;47.974;7.824;2023-03-21T03:03:27;5.30;99.90
8214;DHT22;4148;47.974;7.824;2023-03-21T03:06:01;5.30;99.90
8214;DHT22;4148;47.974;7.824;2023-03-21T03:08:40;5.40;99.90
8214;DHT22;4148;47.974;7.824;2023-03-21T03:11:30;5.30;99.90
8214;DHT22;4148;47.974;7.824;2023-03-21T03:14:13;5.30;99.90
8214;DHT22;4148;47.974;7.824;2023-03-21T03:17:17;5.50;99.90
8214;DHT22;4148;47.974;7.824;2023-03-21T03:19:56;5.60;99.90
8214;DHT22;4148;47.974;7.824;2023-03-21T03:22:45;5.60;99.90
8214;DHT22;4148;47.974;7.824;2023-03-21T03:25:20;5.40;99.90
8214;DHT22;4148;47.974;7.824;2023-03-21T03:28:08;5.50;99.90
8214;DHT22;4148;47.974;7.824;2023-03-21T03:30:38;5.60;99.90
8214;DHT22;4148;47.974;7.824;2023-03-21T03:33:23;5.50;99.90
8214;DHT22;4148;47.974;7.824;2023-03-21T03:35:54;5.50;99.90
8214;DHT22;4148;47.974;7.824;2023-03-21T03:38:32;5.50;99.90
8214;DHT22;4148;47.974;7.824;2023-03-21T03:41:07;5.60;99.90
8214;DHT22;4148;47.974;7.824;2023-03-21T03:43:40;5.60;99.90
8214;DHT22;4148;47.974;7.824;2023-03-21T03:46:13;5.40;99.90
8214;DHT22;4148;47.974;7.824;2023-03-21T03:48:48;5.30;99.90
8214;DHT22;4148;47.974;7.824;2023-03-21T03:51:20;5.30;99.90
8214;DHT22;4148;47.974;7.824;2023-03-21T03:53:53;5.30;99.90
8214;DHT22;4148;47.974;7.824;2023-03-21T03:56:25;5.20;99.90
8214;DHT22;4148;47.974;7.824;2023-03-21T03:58:53;4.90;99.90
8214;DHT22;4148;47.974;7.824;2023-03-21T04:01:22;5.10;99.90
8214;DHT22;4148;47.974;7.824;2023-03-21T04:03:50;5.20;99.90
8214;DHT22;4148;47.974;7.824;2023-03-21T04:06:36;5.30;99.90
8214;DHT22;4148;47.974;7.824;2023-03-21T04:09:04;5.40;99.90
8214;DHT22;4148;47.974;7.824;2023-03-21T04:11:47;5.30;99.90
8214;DHT22;4148;47.974;7.824;2023-03-21T04:14:15;5.20;99.90
8214;DHT22;4148;47.974;7.824;2023-03-21T04:16:43;5.20;99.90
8214;DHT22;4148;47.974;7.824;2023-03-21T04:19:11;5.00;99.90
8214;DHT22;4148;47.974;7.824;2023-03-21T04:21:41;5.10;99.90
8214;DHT22;4148;47.974;7.824;2023-03-21T04:24:09;5.00;99.90
8214;DHT22;4148;47.974;7.824;2023-03-21T04:26:39;5.10;99.90
8214;DHT22;4148;47.974;7.824;2023-03-21T04:29:08;5.00;99.90
8214;DHT22;4148;47.974;7.824;2023-03-21T04:31:36;4.90;99.90
8214;DHT22;4148;47.974;7.824;2023-03-21T04:34:07;4.90;99.90
8214;DHT22;4148;47.974;7.824;2023-03-21T04:36:38;4.90;99.90
8214;DHT22;4148;47.974;7.824;2023-03-21T04:39:09;4.90;99.90
8214;DHT22;4148;47.974;7.824;2023-03-21T04:41:39;4.90;99.90
8214;DHT22;4148;47.974;7.824;2023-03-21T04:44:09;4.70;99.90
8214;DHT22;4148;47.974;7.824;2023-03-21T04:46:38;4.50;99.90
8214;DHT22;4148;47.974;7.824;2023-03-21T04:49:06;4.40;99.90
8214;DHT22;4148;47.974;7.824;2023-03-21T04:51:34;4.30;99.90
8214;DHT22;4148;47.974;7.824;2023-03-21T04:54:02;4.50;99.90
8214;DHT22;4148;47.974;7.824;2023-03-21T04:56:31;4.60;99.90
8214;DHT22;4148;47.974;7.824;2023-03-21T04:59:04;4.50;99.90
8214;DHT22;4148;47.974;7.824;2023-03-21T05:01:33;4.70;99.90
8214;DHT22;4148;47.974;7.824;2023-03-21T05:04:01;4.60;99.90
8214;DHT22;4148;47.974;7.824;2023-03-21T05:06:30;4.70;99.90
8214;DHT22;4148;47.974;7.824;2023-03-21T05:08:59;4.70;99.90
8214;DHT22;4148;47.974;7.824;2023-03-21T05:11:29;4.80;99.90
8214;DHT22;4148;47.974;7.824;2023-03-21T05:13:58;4.80;99.90
8214;DHT22;4148;47.974;7.824;2023-03-21T05:16:26;4.80;99.90
8214;DHT22;4148;47.974;7.824;2023-03-21T05:18:58;4.80;99.90
8214;DHT22;4148;47.974;7.824;2023-03-21T05:21:29;4.60;99.90
8214;DHT22;4148;47.974;7.824;2023-03-21T05:24:00;4.60;99.90
8214;DHT22;4148;47.974;7.824;2023-03-21T05:26:29;4.60;99.90
8214;DHT22;4148;47.974;7.824;2023-03-21T05:28:57;4.60;99.90
8214;DHT22;4148;47.974;7.824;2023-03-21T05:31:24;4.50;99.90
8214;DHT22;4148;47.974;7.824;2023-03-21T05:33:52;4.40;99.90
8214;DHT22;4148;47.974;7.824;2023-03-21T05:36:21;4.50;99.90
8214;DHT22;4148;47.974;7.824;2023-03-21T05:38:49;4.40;99.90
8214;DHT22;4148;47.974;7.824;2023-03-21T05:41:17;4.50;99.90
8214;DHT22;4148;47.974;7.824;2023-03-21T05:43:46;4.40;99.90
8214;DHT22;4148;47.974;7.824;2023-03-21T05:46:14;4.40;99.90
8214;DHT22;4148;47.974;7.824;2023-03-21T05:48:42;4.40;99.90
8214;DHT22;4148;47.974;7.824;2023-03-21T05:51:10;4.40;99.90
8214;DHT22;4148;47.974;7.824;2023-03-21T05:53:40;4.40;99.90
8214;DHT22;4148;47.974;7.824;2023-03-21T05:56:08;4.50;99.90
8214;DHT22;4148;47.974;7.824;2023-03-21T05:58:36;4.50;99.90
8214;DHT22;4148;47.974;7.824;2023-03-21T06:01:05;4.60;99.90
8214;DHT22;4148;47.974;7.824;2023-03-21T06:03:32;4.60;99.90
8214;DHT22;4148;47.974;7.824;2023-03-21T06:06:00;4.50;99.90
8214;DHT22;4148;47.974;7.824;2023-03-21T06:08:29;4.50;99.90
8214;DHT22;4148;47.974;7.824;2023-03-21T06:10:59;4.50;99.90
8214;DHT22;4148;47.974;7.824;2023-03-21T06:13:26;4.50;99.90
8214;DHT22;4148;47.974;7.824;2023-03-21T06:15:56;4.50;99.90
8214;DHT22;4148;47.974;7.824;2023-03-21T06:18:24;4.60;99.90
8214;DHT22;4148;47.974;7.824;2023-03-21T06:20:53;4.60;99.90
8214;DHT22;4148;47.974;7.824;2023-03-21T06:23:22;4.90;99.90
8214;DHT22;4148;47.974;7.824;2023-03-21T06:25:50;5.10;99.90
8214;DHT22;4148;47.974;7.824;2023-03-21T06:28:19;5.20;99.90
8214;DHT22;4148;47.974;7.824;2023-03-21T06:30:47;5.20;99.90
8214;DHT22;4148;47.974;7.824;2023-03-21T06:33:15;5.40;99.90
8214;DHT22;4148;47.974;7.824;2023-03-21T06:35:43;5.50;99.90
8214;DHT22;4148;47.974;7.824;2023-03-21T06:38:11;5.60;99.90
8214;DHT22;4148;47.974;7.824;2023-03-21T06:40:39;5.70;99.90
8214;DHT22;4148;47.974;7.824;2023-03-21T06:43:06;5.80;99.90
8214;DHT22;4148;47.974;7.824;2023-03-21T06:45:36;5.90;99.90
8214;DHT22;4148;47.974;7.824;2023-03-21T06:48:04;6.10;99.90
8214;DHT22;4148;47.974;7.824;2023-03-21T06:50:35;6.20;99.90
8214;DHT22;4148;47.974;7.824;2023-03-21T06:53:03;6.30;99.90
8214;DHT22;4148;47.974;7.824;2023-03-21T06:55:30;6.50;99.90
8214;DHT22;4148;47.974;7.824;2023-03-21T06:57:58;6.80;99.90
8214;DHT22;4148;47.974;7.824;2023-03-21T07:00:26;6.90;99.90
8214;DHT22;4148;47.974;7.824;2023-03-21T07:02:55;7.00;99.90
8214;DHT22;4148;47.974;7.824;2023-03-21T07:05:23;7.10;99.90
8214;DHT22;4148;47.974;7.824;2023-03-21T07:07:51;7.20;99.90
8214;DHT22;4148;47.974;7.824;2023-03-21T07:10:19;7.30;99.90
8214;DHT22;4148;47.974;7.824;2023-03-21T07:12:47;7.40;99.90
8214;DHT22;4148;47.974;7.824;2023-03-21T07:15:15;7.50;99.90
8214;DHT22;4148;47.974;7.824;2023-03-21T07:17:43;7.70;99.90
8214;DHT22;4148;47.974;7.824;2023-03-21T07:20:12;7.80;99.90
8214;DHT22;4148;47.974;7.824;2023-03-21T07:22:41;7.80;99.90
8214;DHT22;4148;47.974;7.824;2023-03-21T07:25:09;7.90;99.90
8214;DHT22;4148;47.974;7.824;2023-03-21T07:27:37;8.10;99.90
8214;DHT22;4148;47.974;7.824;2023-03-21T07:30:08;8.20;99.90
8214;DHT22;4148;47.974;7.824;2023-03-21T07:32:37;8.40;99.90
8214;DHT22;4148;47.974;7.824;2023-03-21T07:35:06;8.60;99.90
8214;DHT22;4148;47.974;7.824;2023-03-21T07:37:35;8.80;99.90
8214;DHT22;4148;47.974;7.824;2023-03-21T07:40:04;9.00;99.90
8214;DHT22;4148;47.974;7.824;2023-03-21T07:42:36;9.20;99.90
8214;DHT22;4148;47.974;7.824;2023-03-21T07:45:05;9.40;99.90
8214;DHT22;4148;47.974;7.824;2023-03-21T07:47:33;9.50;99.90
8214;DHT22;4148;47.974;7.824;2023-03-21T07:50:01;9.60;99.90
8214;DHT22;4148;47.974;7.824;2023-03-21T07:52:30;9.90;99.90
8214;DHT22;4148;47.974;7.824;2023-03-21T07:55:00;10.00;99.90
8214;DHT22;4148;47.974;7.824;2023-03-21T07:57:27;10.10;99.90
8214;DHT22;4148;47.974;7.824;2023-03-21T07:59:55;10.20;99.90
8214;DHT22;4148;47.974;7.824;2023-03-21T08:02:23;10.30;99.90
8214;DHT22;4148;47.974;7.824;2023-03-21T08:04:51;10.40;99.90
8214;DHT22;4148;47.974;7.824;2023-03-21T08:07:19;10.50;99.90
8214;DHT22;4148;47.974;7.824;2023-03-21T08:09:47;10.60;99.90
8214;DHT22;4148;47.974;7.824;2023-03-21T08:12:16;10.70;99.90
8214;DHT22;4148;47.974;7.824;2023-03-21T08:14:44;10.80;99.90
8214;DHT22;4148;47.974;7.824;2023-03-21T08:17:12;11.00;99.90
8214;DHT22;4148;47.974;7.824;2023-03-21T08:19:40;11.20;99.90
8214;DHT22;4148;47.974;7.824;2023-03-21T08:22:07;11.30;99.90
8214;DHT22;4148;47.974;7.824;2023-03-21T08:24:36;11.20;99.90
8214;DHT22;4148;47.974;7.824;2023-03-21T08:27:04;11.40;99.90
8214;DHT22;4148;47.974;7.824;2023-03-21T08:29:33;11.50;99.90
8214;DHT22;4148;47.974;7.824;2023-03-21T08:32:05;11.40;99.90
8214;DHT22;4148;47.974;7.824;2023-03-21T08:34:33;11.50;99.90
8214;DHT22;4148;47.974;7.824;2023-03-21T08:37:02;11.50;99.90
8214;DHT22;4148;47.974;7.824;2023-03-21T08:39:30;11.70;99.90
8214;DHT22;4148;47.974;7.824;2023-03-21T08:41:58;11.80;99.90
8214;DHT22;4148;47.974;7.824;2023-03-21T08:44:25;12.00;99.90
8214;DHT22;4148;47.974;7.824;2023-03-21T08:46:55;11.90;99.90
8214;DHT22;4148;47.974;7.824;2023-03-21T08:49:22;11.80;99.90
8214;DHT22;4148;47.974;7.824;2023-03-21T08:51:54;11.90;99.90
8214;DHT22;4148;47.974;7.824;2023-03-21T08:54:22;12.10;99.90
8214;DHT22;4148;47.974;7.824;2023-03-21T08:56:50;12.20;99.90
8214;DHT22;4148;47.974;7.824;2023-03-21T08:59:18;12.30;99.90
8214;DHT22;4148;47.974;7.824;2023-03-21T09:01:46;12.40;99.90
8214;DHT22;4148;47.974;7.824;2023-03-21T09:04:15;12.70;99.90
8214;DHT22;4148;47.974;7.824;2023-03-21T09:06:44;13.00;99.90
8214;DHT22;4148;47.974;7.824;2023-03-21T09:09:14;13.30;99.90
8214;DHT22;4148;47.974;7.824;2023-03-21T09:11:42;13.70;99.90
8214;DHT22;4148;47.974;7.824;2023-03-21T09:14:10;13.80;99.90
8214;DHT22;4148;47.974;7.824;2023-03-21T09:16:38;14.20;99.90
8214;DHT22;4148;47.974;7.824;2023-03-21T09:19:07;14.30;99.90
8214;DHT22;4148;47.974;7.824;2023-03-21T09:21:36;14.50;99.90
8214;DHT22;4148;47.974;7.824;2023-03-21T09:24:05;14.50;99.90
8214;DHT22;4148;47.974;7.824;2023-03-21T09:26:33;15.00;99.90
8214;DHT22;4148;47.974;7.824;2023-03-21T09:29:02;14.80;99.90
8214;DHT22;4148;47.974;7.824;2023-03-21T09:31:31;14.80;99.90
8214;DHT22;4148;47.974;7.824;2023-03-21T09:33:59;15.00;99.90
8214;DHT22;4148;47.974;7.824;2023-03-21T09:36:27;15.00;99.90
8214;DHT22;4148;47.974;7.824;2023-03-21T09:38:59;15.30;99.90
8214;DHT22;4148;47.974;7.824;2023-03-21T09:41:38;15.10;99.90
8214;DHT22;4148;47.974;7.824;2023-03-21T09:44:20;15.30;99.90
8214;DHT22;4148;47.974;7.824;2023-03-21T09:46:56;15.40;99.90
8214;DHT22;4148;47.974;7.824;2023-03-21T09:49:29;15.70;99.90
8214;DHT22;4148;47.974;7.824;2023-03-21T09:52:02;15.90;99.90
8214;DHT22;4148;47.974;7.824;2023-03-21T09:54:36;16.00;99.90
8214;DHT22;4148;47.974;7.824;2023-03-21T09:57:13;16.20;99.90
8214;DHT22;4148;47.974;7.824;2023-03-21T09:59:46;16.60;99.90
8214;DHT22;4148;47.974;7.824;2023-03-21T10:02:25;16.40;99.90
8214;DHT22;4148;47.974;7.824;2023-03-21T10:04:58;16.30;99.90
8214;DHT22;4148;47.974;7.824;2023-03-21T10:07:27;16.50;99.90
8214;DHT22;4148;47.974;7.824;2023-03-21T10:09:59;16.40;99.90
8214;DHT22;4148;47.974;7.824;2023-03-21T10:12:29;16.70;99.90
8214;DHT22;4148;47.974;7.824;2023-03-21T10:14:59;16.80;99.90
8214;DHT22;4148;47.974;7.824;2023-03-21T10:17:33;17.10;99.90
8214;DHT22;4148;47.974;7.824;2023-03-21T10:20:11;17.50;99.90
8214;DHT22;4148;47.974;7.824;2023-03-21T10:22:41;17.30;99.90
8214;DHT22;4148;47.974;7.824;2023-03-21T10:25:14;17.40;99.90
8214;DHT22;4148;47.974;7.824;2023-03-21T10:30:20;17.90;99.90
8214;DHT22;4148;47.974;7.824;2023-03-21T10:32:48;18.10;99.90
8214;DHT22;4148;47.974;7.824;2023-03-21T10:35:17;18.40;99.90
8214;DHT22;4148;47.974;7.824;2023-03-21T10:37:46;18.50;99.90
8214;DHT22;4148;47.974;7.824;2023-03-21T10:40:16;19.00;99.90
8214;DHT22;4148;47.974;7.824;2023-03-21T10:42:44;19.30;99.90
8214;DHT22;4148;47.974;7.824;2023-03-21T10:45:17;19.20;99.30
8214;DHT22;4148;47.974;7.824;2023-03-21T10:47:47;19.10;99.90
8214;DHT22;4148;47.974;7.824;2023-03-21T10:50:17;19.40;99.60
8214;DHT22;4148;47.974;7.824;2023-03-21T10:52:54;19.70;99.90
8214;DHT22;4148;47.974;7.824;2023-03-21T10:55:28;19.70;97.80
8214;DHT22;4148;47.974;7.824;2023-03-21T10:58:00;19.70;98.50
8214;DHT22;4148;47.974;7.824;2023-03-21T11:00:33;19.40;97.50
8214;DHT22;4148;47.974;7.824;2023-03-21T11:03:02;19.60;98.60
8214;DHT22;4148;47.974;7.824;2023-03-21T11:05:36;20.20;96.70
8214;DHT22;4148;47.974;7.824;2023-03-21T11:08:09;20.20;95.70
8214;DHT22;4148;47.974;7.824;2023-03-21T11:10:52;19.70;97.50
8214;DHT22;4148;47.974;7.824;2023-03-21T11:13:24;19.80;97.10
8214;DHT22;4148;47.974;7.824;2023-03-21T11:15:55;20.00;97.80
8214;DHT22;4148;47.974;7.824;2023-03-21T11:18:26;20.30;96.70
8214;DHT22;4148;47.974;7.824;2023-03-21T11:20:56;20.30;96.90
8214;DHT22;4148;47.974;7.824;2023-03-21T11:23:27;20.10;97.50
8214;DHT22;4148;47.974;7.824;2023-03-21T11:25:58;20.40;96.40
8214;DHT22;4148;47.974;7.824;2023-03-21T11:28:32;20.20;96.90
8214;DHT22;4148;47.974;7.824;2023-03-21T11:31:03;20.00;97.00
8214;DHT22;4148;47.974;7.824;2023-03-21T11:33:34;19.90;98.60
8214;DHT22;4148;47.974;7.824;2023-03-21T11:36:05;19.70;98.30
8214;DHT22;4148;47.974;7.824;2023-03-21T11:38:36;19.70;97.10
8214;DHT22;4148;47.974;7.824;2023-03-21T11:41:06;19.80;97.00
8214;DHT22;4148;47.974;7.824;2023-03-21T11:43:36;19.90;97.80
8214;DHT22;4148;47.974;7.824;2023-03-21T11:46:06;20.00;96.80
8214;DHT22;4148;47.974;7.824;2023-03-21T11:48:39;20.10;97.50
8214;DHT22;4148;47.974;7.824;2023-03-21T11:51:13;20.00;96.30
8214;DHT22;4148;47.974;7.824;2023-03-21T11:53:48;20.00;96.50
8214;DHT22;4148;47.974;7.824;2023-03-21T11:56:23;19.70;98.10
8214;DHT22;4148;47.974;7.824;2023-03-21T11:59:03;19.40;97.50
8214;DHT22;4148;47.974;7.824;2023-03-21T12:01:38;19.00;98.50
8214;DHT22;4148;47.974;7.824;2023-03-21T12:04:19;18.60;99.20
8214;DHT22;4148;47.974;7.824;2023-03-21T12:06:52;18.00;99.40
8214;DHT22;4148;47.974;7.824;2023-03-21T12:09:28;18.10;99.90
8214;DHT22;4148;47.974;7.824;2023-03-21T12:12:05;18.00;99.90
8214;DHT22;4148;47.974;7.824;2023-03-21T12:14:46;17.80;99.90
8214;DHT22;4148;47.974;7.824;2023-03-21T12:17:28;17.80;99.90
8214;DHT22;4148;47.974;7.824;2023-03-21T12:20:18;17.90;99.90
8214;DHT22;4148;47.974;7.824;2023-03-21T12:23:03;18.10;98.90
8214;DHT22;4148;47.974;7.824;2023-03-21T12:25:38;18.20;98.60
8214;DHT22;4148;47.974;7.824;2023-03-21T12:28:22;18.30;99.20
8214;DHT22;4148;47.974;7.824;2023-03-21T12:31:07;18.20;98.80
8214;DHT22;4148;47.974;7.824;2023-03-21T12:33:52;18.20;98.30
8214;DHT22;4148;47.974;7.824;2023-03-21T12:36:36;18.40;98.50
8214;DHT22;4148;47.974;7.824;2023-03-21T12:39:15;18.40;98.00
8214;DHT22;4148;47.974;7.824;2023-03-21T12:41:49;18.20;98.00
8214;DHT22;4148;47.974;7.824;2023-03-21T12:44:23;18.10;97.90
8214;DHT22;4148;47.974;7.824;2023-03-21T12:46:56;18.10;97.30
8214;DHT22;4148;47.974;7.824;2023-03-21T12:49:31;18.20;95.70
8214;DHT22;4148;47.974;7.824;2023-03-21T12:52:04;18.20;95.10
8214;DHT22;4148;47.974;7.824;2023-03-21T12:54:36;18.10;94.90
8214;DHT22;4148;47.974;7.824;2023-03-21T12:57:09;18.20;94.60
8214;DHT22;4148;47.974;7.824;2023-03-21T12:59:43;18.30;95.70
8214;DHT22;4148;47.974;7.824;2023-03-21T13:02:19;18.40;95.10
8214;DHT22;4148;47.974;7.824;2023-03-21T13:04:55;18.50;93.70
8214;DHT22;4148;47.974;7.824;2023-03-21T13:07:28;18.50;91.80
8214;DHT22;4148;47.974;7.824;2023-03-21T13:09:58;18.40;93.00
8214;DHT22;4148;47.974;7.824;2023-03-21T13:12:39;18.50;93.10
8214;DHT22;4148;47.974;7.824;2023-03-21T13:15:25;18.40;93.20
8214;DHT22;4148;47.974;7.824;2023-03-21T13:18:01;18.40;93.20
8214;DHT22;4148;47.974;7.824;2023-03-21T13:20:36;18.30;93.80
8214;DHT22;4148;47.974;7.824;2023-03-21T13:23:08;18.30;94.10
8214;DHT22;4148;47.974;7.824;2023-03-21T13:25:41;18.20;92.50
8214;DHT22;4148;47.974;7.824;2023-03-21T13:28:17;18.20;92.40
8214;DHT22;4148;47.974;7.824;2023-03-21T13:30:47;18.20;91.60
8214;DHT22;4148;47.974;7.824;2023-03-21T13:33:21;18.40;91.80
8214;DHT22;4148;47.974;7.824;2023-03-21T13:35:58;18.30;93.00
8214;DHT22;4148;47.974;7.824;2023-03-21T13:38:32;18.40;93.10
8214;DHT22;4148;47.974;7.824;2023-03-21T13:41:06;18.50;91.50
8214;DHT22;4148;47.974;7.824;2023-03-21T13:43:40;18.40;92.80
8214;DHT22;4148;47.974;7.824;2023-03-21T13:46:12;18.40;93.80
8214;DHT22;4148;47.974;7.824;2023-03-21T13:48:54;18.30;92.60
8214;DHT22;4148;47.974;7.824;2023-03-21T13:51:42;18.10;93.00
8214;DHT22;4148;47.974;7.824;2023-03-21T13:54:20;18.20;93.60
8214;DHT22;4148;47.974;7.824;2023-03-21T13:56:51;18.40;93.20
8214;DHT22;4148;47.974;7.824;2023-03-21T13:59:36;18.10;91.90
8214;DHT22;4148;47.974;7.824;2023-03-21T14:02:28;18.10;92.60
8214;DHT22;4148;47.974;7.824;2023-03-21T14:04:59;18.10;93.00
8214;DHT22;4148;47.974;7.824;2023-03-21T14:07:33;17.80;92.90
8214;DHT22;4148;47.974;7.824;2023-03-21T14:10:06;17.70;93.70
8214;DHT22;4148;47.974;7.824;2023-03-21T14:12:37;17.70;94.50
8214;DHT22;4148;47.974;7.824;2023-03-21T14:15:11;17.60;94.10
8214;DHT22;4148;47.974;7.824;2023-03-21T14:17:50;17.70;94.00
8214;DHT22;4148;47.974;7.824;2023-03-21T14:20:21;17.90;94.40
8214;DHT22;4148;47.974;7.824;2023-03-21T14:22:49;18.00;94.30
8214;DHT22;4148;47.974;7.824;2023-03-21T14:25:18;18.10;94.60
8214;DHT22;4148;47.974;7.824;2023-03-21T14:27:48;18.00;94.60
8214;DHT22;4148;47.974;7.824;2023-03-21T14:30:23;17.80;94.70
8214;DHT22;4148;47.974;7.824;2023-03-21T14:32:54;17.60;94.80
8214;DHT22;4148;47.974;7.824;2023-03-21T14:35:23;17.70;95.00
8214;DHT22;4148;47.974;7.824;2023-03-21T14:37:52;17.70;95.00
8214;DHT22;4148;47.974;7.824;2023-03-21T14:40:22;17.70;95.60
8214;DHT22;4148;47.974;7.824;2023-03-21T14:42:51;17.80;95.20
8214;DHT22;4148;47.974;7.824;2023-03-21T14:45:21;17.90;94.70
8214;DHT22;4148;47.974;7.824;2023-03-21T14:47:58;17.90;94.80
8214;DHT22;4148;47.974;7.824;2023-03-21T14:50:35;17.90;95.30
8214;DHT22;4148;47.974;7.824;2023-03-21T14:53:05;17.90;94.50
8214;DHT22;4148;47.974;7.824;2023-03-21T14:55:40;17.80;94.60
8214;DHT22;4148;47.974;7.824;2023-03-21T14:58:10;17.70;94.60
8214;DHT22;4148;47.974;7.824;2023-03-21T15:00:39;17.60;95.10
8214;DHT22;4148;47.974;7.824;2023-03-21T15:03:11;17.50;96.00
8214;DHT22;4148;47.974;7.824;2023-03-21T15:05:40;17.40;95.90
8214;DHT22;4148;47.974;7.824;2023-03-21T15:08:13;17.50;96.20
8214;DHT22;4148;47.974;7.824;2023-03-21T15:10:45;17.30;95.60
8214;DHT22;4148;47.974;7.824;2023-03-21T15:13:34;17.20;96.20
8214;DHT22;4148;47.974;7.824;2023-03-21T15:16:02;17.20;96.00
8214;DHT22;4148;47.974;7.824;2023-03-21T15:18:33;17.20;96.00
8214;DHT22;4148;47.974;7.824;2023-03-21T15:21:06;17.20;96.00
8214;DHT22;4148;47.974;7.824;2023-03-21T15:23:38;17.20;96.30
8214;DHT22;4148;47.974;7.824;2023-03-21T15:26:07;17.20;96.40
8214;DHT22;4148;47.974;7.824;2023-03-21T15:28:39;17.10;96.60
8214;DHT22;4148;47.974;7.824;2023-03-21T15:31:19;17.20;96.70
8214;DHT22;4148;47.974;7.824;2023-03-21T15:33:50;17.10;96.20
8214;DHT22;4148;47.974;7.824;2023-03-21T15:36:21;17.10;96.30
8214;DHT22;4148;47.974;7.824;2023-03-21T15:38:50;17.10;96.50
8214;DHT22;4148;47.974;7.824;2023-03-21T15:41:27;17.10;96.30
8214;DHT22;4148;47.974;7.824;2023-03-21T15:44:02;17.00;95.90
8214;DHT22;4148;47.974;7.824;2023-03-21T15:46:38;17.00;96.30
8214;DHT22;4148;47.974;7.824;2023-03-21T15:49:09;16.90;94.60
8214;DHT22;4148;47.974;7.824;2023-03-21T15:51:46;16.90;95.10
8214;DHT22;4148;47.974;7.824;2023-03-21T15:54:17;16.80;96.50
8214;DHT22;4148;47.974;7.824;2023-03-21T15:56:47;16.90;96.50
8214;DHT22;4148;47.974;7.824;2023-03-21T15:59:17;16.80;97.10
8214;DHT22;4148;47.974;7.824;2023-03-21T16:01:46;16.80;96.80
8214;DHT22;4148;47.974;7.824;2023-03-21T16:04:16;16.90;96.60
8214;DHT22;4148;47.974;7.824;2023-03-21T16:06:56;16.90;96.60
8214;DHT22;4148;47.974;7.824;2023-03-21T16:09:24;17.00;95.50
8214;DHT22;4148;47.974;7.824;2023-03-21T16:11:53;17.00;95.30
8214;DHT22;4148;47.974;7.824;2023-03-21T16:14:23;16.90;95.70
8214;DHT22;4148;47.974;7.824;2023-03-21T16:16:53;16.80;96.20
8214;DHT22;4148;47.974;7.824;2023-03-21T16:19:23;16.70;96.80
8214;DHT22;4148;47.974;7.824;2023-03-21T16:21:53;16.70;96.70
8214;DHT22;4148;47.974;7.824;2023-03-21T16:24:21;16.60;97.60
8214;DHT22;4148;47.974;7.824;2023-03-21T16:26:48;16.50;98.10
8214;DHT22;4148;47.974;7.824;2023-03-21T16:29:18;16.50;97.90
8214;DHT22;4148;47.974;7.824;2023-03-21T16:31:46;16.50;97.70
8214;DHT22;4148;47.974;7.824;2023-03-21T16:34:14;16.50;97.00
8214;DHT22;4148;47.974;7.824;2023-03-21T16:36:43;16.50;96.50
8214;DHT22;4148;47.974;7.824;2023-03-21T16:39:16;16.50;95.90
8214;DHT22;4148;47.974;7.824;2023-03-21T16:41:45;16.50;95.80
8214;DHT22;4148;47.974;7.824;2023-03-21T16:44:13;16.50;96.50
8214;DHT22;4148;47.974;7.824;2023-03-21T16:46:41;16.40;96.50